createdAt,value
2022-12-15T00:02:13.580Z,98882.38
2022-12-15T00:04:58.909Z,98955.88
2022-12-15T00:07:44.352Z,98912.81
2022-12-15T00:10:29.317Z,98943.69
2022-12-15T00:13:14.783Z,98950.28
2022-12-15T00:16:00.106Z,98940.19
2022-12-15T00:18:45.395Z,98942.06
2022-12-15T00:21:30.539Z,98911.47
2022-12-15T00:24:15.847Z,98967.72
2022-12-15T00:27:01.309Z,98965.56
2022-12-15T00:29:46.685Z,98969.31
2022-12-15T00:32:31.829Z,98957.16
2022-12-15T00:35:17.232Z,98964.63
2022-12-15T00:38:02.354Z,98828.19
2022-12-15T00:40:29.009Z,98948.00
2022-12-15T00:42:55.594Z,98845.63
2022-12-15T00:45:42.214Z,98947.47
2022-12-15T00:48:08.897Z,98901.88
2022-12-15T00:50:53.692Z,98814.16
2022-12-15T00:53:41.306Z,98967.50
2022-12-15T00:56:28.116Z,98860.53
2022-12-15T00:59:13.928Z,98969.06
2022-12-15T01:02:00.866Z,98796.00
2022-12-15T01:04:47.048Z,98947.41
2022-12-15T01:07:33.013Z,98887.47
2022-12-15T01:10:18.916Z,98972.94
2022-12-15T01:13:05.384Z,98757.25
2022-12-15T01:15:50.887Z,98975.66
2022-12-15T01:18:36.213Z,98854.50
2022-12-15T01:21:05.314Z,98891.69
2022-12-15T01:23:33.057Z,98970.34
2022-12-15T01:26:00.254Z,98978.53
2022-12-15T01:28:27.154Z,98946.09
2022-12-15T01:30:54.153Z,98971.31
2022-12-15T01:33:21.376Z,98940.69
2022-12-15T01:36:01.743Z,98479.16
2022-12-15T01:38:29.408Z,98907.41
2022-12-15T01:41:00.845Z,98978.88
2022-12-15T01:43:34.667Z,98976.06
2022-12-15T01:46:03.611Z,98971.44
2022-12-15T01:48:51.907Z,98973.56
2022-12-15T01:51:32.985Z,98978.41
2022-12-15T01:54:06.121Z,98969.91
2022-12-15T01:56:44.740Z,98981.22
2022-12-15T01:59:20.110Z,98958.78
2022-12-15T02:01:50.002Z,98835.81
2022-12-15T02:04:21.506Z,98997.00
2022-12-15T02:06:48.313Z,98895.75
2022-12-15T02:09:15.889Z,98724.38
2022-12-15T02:12:14.678Z,98973.34
2022-12-15T02:15:02.947Z,98958.50
2022-12-15T02:17:58.111Z,98986.78
2022-12-15T02:21:16.441Z,98977.47
2022-12-15T02:24:34.261Z,98982.22
2022-12-15T02:27:34.293Z,98943.09
2022-12-15T02:30:16.746Z,98984.44
2022-12-15T02:32:47.816Z,98958.34
2022-12-15T02:35:22.636Z,98918.38
2022-12-15T02:37:49.919Z,99054.53
2022-12-15T02:40:17.465Z,99004.31
2022-12-15T02:42:48.033Z,98995.69
2022-12-15T02:45:20.469Z,99003.50
2022-12-15T02:48:21.576Z,99001.53
2022-12-15T02:50:51.214Z,99002.03
2022-12-15T02:53:36.208Z,99002.81
2022-12-15T02:56:15.453Z,98941.56
2022-12-15T02:59:13.874Z,99005.91
2022-12-15T03:01:51.679Z,99004.97
2022-12-15T03:04:20.137Z,98992.56
2022-12-15T03:07:00.592Z,99007.25
2022-12-15T03:09:28.207Z,98908.19
2022-12-15T03:11:54.967Z,98925.97
2022-12-15T03:14:21.948Z,99015.38
2022-12-15T03:16:48.738Z,98915.16
2022-12-15T03:19:15.368Z,99014.13
2022-12-15T03:21:41.990Z,98912.09
2022-12-15T03:24:09.070Z,98845.13
2022-12-15T03:26:35.939Z,99019.88
2022-12-15T03:29:02.724Z,98972.03
2022-12-15T03:31:31.867Z,99028.59
2022-12-15T03:33:58.483Z,99029.31
2022-12-15T03:36:25.112Z,99035.66
2022-12-15T03:38:51.758Z,99026.91
2022-12-15T03:41:19.315Z,99030.34
2022-12-15T03:43:46.440Z,99040.00
2022-12-15T03:46:16.807Z,99031.31
2022-12-15T03:48:43.648Z,99050.34
2022-12-15T03:51:10.534Z,98958.34
2022-12-15T03:53:37.347Z,99035.34
2022-12-15T03:56:04.246Z,98989.41
2022-12-15T03:58:30.836Z,98811.50
2022-12-15T04:04:07.374Z,98963.91
2022-12-15T04:06:34.083Z,99052.69
2022-12-15T04:09:00.677Z,99002.94
2022-12-15T04:11:27.342Z,99050.97
2022-12-15T04:13:53.941Z,98923.41
2022-12-15T04:16:20.712Z,99028.00
2022-12-15T04:19:08.142Z,99025.63
2022-12-15T04:21:34.938Z,99061.97
2022-12-15T04:24:20.445Z,98983.84
2022-12-15T04:27:05.917Z,99078.16
2022-12-15T04:29:51.222Z,98933.44
2022-12-15T04:32:36.818Z,99081.38
2022-12-15T04:35:22.242Z,99076.47
2022-12-15T04:38:07.593Z,99079.97
2022-12-15T04:40:53.447Z,99081.69
2022-12-15T04:43:38.915Z,98892.03
2022-12-15T04:46:24.672Z,98995.91
2022-12-15T04:49:09.919Z,99065.13
2022-12-15T04:51:55.197Z,99068.84
2022-12-15T04:54:40.866Z,99006.03
2022-12-15T04:57:26.016Z,99083.56
2022-12-15T05:00:11.375Z,99001.84
2022-12-15T05:02:56.878Z,99101.59
2022-12-15T05:05:42.303Z,99062.00
2022-12-15T05:08:27.428Z,98701.66
2022-12-15T05:11:12.742Z,99103.00
2022-12-15T05:13:58.076Z,99020.59
2022-12-15T05:16:43.181Z,99131.88
2022-12-15T05:19:28.322Z,99106.94
2022-12-15T05:22:13.561Z,99252.66
2022-12-15T05:24:58.833Z,99003.13
2022-12-15T05:27:43.888Z,99027.41
2022-12-15T05:30:29.373Z,99120.19
2022-12-15T05:32:56.058Z,99127.28
2022-12-15T05:35:22.749Z,99134.78
2022-12-15T05:37:49.429Z,98943.63
2022-12-15T05:40:16.143Z,99140.59
2022-12-15T05:42:42.781Z,99144.38
2022-12-15T05:45:10.242Z,99069.69
2022-12-15T05:47:36.887Z,99172.44
2022-12-15T05:50:03.982Z,99044.63
2022-12-15T05:52:30.772Z,99092.34
2022-12-15T05:54:57.371Z,99152.72
2022-12-15T05:57:24.013Z,99156.63
2022-12-15T05:59:50.621Z,98860.63
2022-12-15T06:02:17.307Z,99164.88
2022-12-15T06:04:44.331Z,99171.50
2022-12-15T06:07:11.033Z,99168.88
2022-12-15T06:09:37.683Z,99188.53
2022-12-15T06:12:04.517Z,99179.38
2022-12-15T06:14:31.299Z,98978.53
2022-12-15T06:16:58.787Z,99185.34
2022-12-15T06:19:25.488Z,99163.50
2022-12-15T06:21:52.161Z,99189.63
2022-12-15T06:24:18.796Z,99033.53
2022-12-15T06:26:49.654Z,98865.81
2022-12-15T06:29:17.084Z,99044.44
2022-12-15T06:31:44.080Z,99055.75
2022-12-15T06:34:15.398Z,99100.03
2022-12-15T06:36:43.101Z,99211.13
2022-12-15T06:39:13.203Z,99222.91
2022-12-15T06:41:42.515Z,99092.66
2022-12-15T06:44:17.757Z,97974.38
2022-12-15T06:46:46.052Z,98515.97
2022-12-15T06:49:13.418Z,99226.53
2022-12-15T06:51:41.490Z,99091.56
2022-12-15T06:54:11.215Z,99229.66
2022-12-15T06:56:39.016Z,99071.94
2022-12-15T06:59:07.463Z,99117.00
2022-12-15T07:01:35.171Z,99235.44
2022-12-15T07:04:04.286Z,99187.75
2022-12-15T07:06:39.171Z,99129.41
2022-12-15T07:09:10.959Z,99242.81
2022-12-15T07:11:37.853Z,99199.44
2022-12-15T07:14:04.833Z,99179.63
2022-12-15T07:16:32.304Z,99200.94
2022-12-15T07:18:58.979Z,99193.13
2022-12-15T07:21:25.661Z,99359.53
2022-12-15T07:23:55.740Z,99185.13
2022-12-15T07:26:23.591Z,99283.19
2022-12-15T07:28:50.301Z,99023.41
2022-12-15T07:31:17.893Z,99156.75
2022-12-15T07:33:45.034Z,99079.13
2022-12-15T07:36:11.965Z,99292.09
2022-12-15T07:38:38.550Z,99201.47
2022-12-15T07:41:07.429Z,99208.13
2022-12-15T07:43:35.427Z,99315.47
2022-12-15T07:46:03.673Z,99308.84
2022-12-15T07:48:30.875Z,99054.00
2022-12-15T07:51:04.962Z,99292.63
2022-12-15T07:53:36.161Z,99325.22
2022-12-15T07:56:09.104Z,99308.25
2022-12-15T07:58:36.727Z,99321.88
2022-12-15T08:01:05.871Z,99325.72
2022-12-15T08:03:33.242Z,99295.34
2022-12-15T08:06:04.828Z,99166.38
2022-12-15T08:08:32.576Z,99326.50
2022-12-15T08:10:59.649Z,99336.34
2022-12-15T08:14:00.817Z,99232.00
2022-12-15T08:16:13.028Z,99299.41
2022-12-15T08:18:39.688Z,99301.19
2022-12-15T08:21:08.312Z,99345.97
2022-12-15T08:23:36.042Z,99214.16
2022-12-15T08:26:07.729Z,99198.41
2022-12-15T08:28:35.929Z,99358.06
2022-12-15T08:31:10.159Z,99368.16
2022-12-15T08:33:37.678Z,99356.94
2022-12-15T08:36:07.356Z,99361.66
2022-12-15T08:38:35.401Z,99361.31
2022-12-15T08:41:08.894Z,99257.63
2022-12-15T08:43:35.981Z,99245.19
2022-12-15T08:46:02.873Z,99310.66
2022-12-15T08:48:30.086Z,99264.94
2022-12-15T08:50:58.561Z,99328.41
2022-12-15T08:53:31.600Z,99376.56
2022-12-15T08:56:06.510Z,99117.06
2022-12-15T08:58:33.546Z,99346.28
2022-12-15T09:01:06.125Z,99254.41
2022-12-15T09:03:34.255Z,99153.41
2022-12-15T09:06:14.401Z,99401.50
2022-12-15T09:08:41.254Z,99411.13
2022-12-15T09:11:08.194Z,99389.53
2022-12-15T09:13:35.334Z,99328.06
2022-12-15T09:16:10.418Z,99395.03
2022-12-15T09:18:37.769Z,99413.28
2022-12-15T09:21:06.493Z,99257.75
2022-12-15T09:23:34.524Z,99435.53
2022-12-15T09:26:02.931Z,99401.59
2022-12-15T09:28:30.054Z,99368.75
2022-12-15T09:31:28.512Z,99411.25
2022-12-15T09:33:58.110Z,99300.09
2022-12-15T09:36:25.600Z,99416.59
2022-12-15T09:38:55.122Z,99421.00
2022-12-15T09:41:24.659Z,99427.03
2022-12-15T09:44:03.272Z,99422.13
2022-12-15T09:46:50.600Z,99390.25
2022-12-15T09:49:32.360Z,99308.66
2022-12-15T09:52:27.308Z,99432.00
2022-12-15T09:54:54.093Z,99434.31
2022-12-15T09:57:26.449Z,99434.28
2022-12-15T10:00:02.524Z,99438.22
2022-12-15T10:03:10.171Z,99002.44
2022-12-15T10:06:18.973Z,99446.53
2022-12-15T10:08:58.355Z,99297.19
2022-12-15T10:11:59.595Z,99449.50
2022-12-15T10:14:38.485Z,99446.59
2022-12-15T10:17:19.829Z,99461.31
2022-12-15T10:19:46.736Z,99462.06
2022-12-15T10:22:27.109Z,99463.41
2022-12-15T10:25:11.017Z,99364.59
2022-12-15T10:28:25.902Z,99463.44
2022-12-15T10:31:00.138Z,99462.59
2022-12-15T10:33:32.920Z,99464.13
2022-12-15T10:35:59.793Z,99469.88
2022-12-15T10:38:42.511Z,99466.00
2022-12-15T10:41:15.056Z,99403.88
2022-12-15T10:43:47.582Z,99468.78
2022-12-15T10:46:25.665Z,99469.69
2022-12-15T10:49:16.698Z,99436.00
2022-12-15T10:51:47.006Z,99463.38
2022-12-15T10:54:15.222Z,99373.38
2022-12-15T10:56:59.544Z,99305.28
2022-12-15T10:59:31.758Z,99459.13
2022-12-15T11:02:24.519Z,99458.63
2022-12-15T11:05:15.516Z,99463.44
2022-12-15T11:07:44.690Z,99470.06
2022-12-15T11:10:16.747Z,99299.03
2022-12-15T11:12:58.196Z,99466.09
2022-12-15T11:15:31.026Z,99470.84
2022-12-15T11:18:16.346Z,98665.84
2022-12-15T11:21:12.556Z,99457.50
2022-12-15T11:24:13.772Z,99462.75
2022-12-15T11:26:50.793Z,99467.22
2022-12-15T11:29:23.557Z,99461.88
2022-12-15T11:31:52.552Z,99098.59
2022-12-15T11:34:27.566Z,99250.75
2022-12-15T11:37:15.501Z,99467.13
2022-12-15T11:39:57.406Z,99400.19
2022-12-15T11:43:04.547Z,99463.56
2022-12-15T11:46:03.541Z,99484.91
2022-12-15T11:48:56.985Z,99474.66
2022-12-15T11:51:47.543Z,99318.56
2022-12-15T11:54:26.506Z,99440.09
2022-12-15T11:57:02.183Z,99316.25
2022-12-15T11:59:55.230Z,99491.22
2022-12-15T12:02:32.146Z,99485.50
2022-12-15T12:05:24.178Z,99392.28
2022-12-15T12:08:01.769Z,99382.72
2022-12-15T12:10:37.521Z,99491.72
2022-12-15T12:13:10.576Z,99264.59
2022-12-15T12:15:59.026Z,99469.38
2022-12-15T12:18:31.320Z,99344.47
2022-12-15T12:21:16.988Z,99486.81
2022-12-15T12:23:56.204Z,99191.38
2022-12-15T12:26:27.400Z,99484.41
2022-12-15T12:29:02.715Z,99344.72
2022-12-15T12:31:43.716Z,99486.16
2022-12-15T12:34:15.807Z,99492.78
2022-12-15T12:36:44.747Z,99476.31
2022-12-15T12:39:23.980Z,99498.75
2022-12-15T12:42:16.186Z,99445.03
2022-12-15T12:44:42.997Z,99506.09
2022-12-15T12:47:23.227Z,99317.09
2022-12-15T12:49:54.636Z,99496.53
2022-12-15T12:52:32.677Z,99380.56
2022-12-15T12:55:03.206Z,99511.72
2022-12-15T12:57:39.544Z,99229.16
2022-12-15T13:00:35.959Z,99517.84
2022-12-15T13:03:11.517Z,99520.44
2022-12-15T13:05:40.575Z,99518.19
2022-12-15T13:08:07.145Z,99522.28
2022-12-15T13:10:39.175Z,99375.69
2022-12-15T13:13:08.543Z,99515.72
2022-12-15T13:15:42.458Z,99514.25
2022-12-15T13:18:24.184Z,99459.13
2022-12-15T13:20:55.656Z,99531.38
2022-12-15T13:23:22.254Z,99520.16
2022-12-15T13:25:59.045Z,99523.13
2022-12-15T13:28:34.993Z,99507.44
2022-12-15T13:31:20.882Z,99519.16
2022-12-15T13:33:50.378Z,99526.31
2022-12-15T13:36:42.011Z,99522.38
2022-12-15T13:39:12.211Z,99512.03
2022-12-15T13:42:15.410Z,99511.66
2022-12-15T13:44:51.797Z,99499.03
2022-12-15T13:47:28.042Z,99518.47
2022-12-15T13:50:01.272Z,99425.16
2022-12-15T13:53:18.457Z,99521.66
2022-12-15T13:55:52.584Z,99519.66
2022-12-15T13:58:21.589Z,99279.53
2022-12-15T14:00:57.209Z,99509.03
2022-12-15T14:03:24.580Z,99503.00
2022-12-15T14:05:57.139Z,99512.56
2022-12-15T14:08:28.427Z,99407.22
2022-12-15T14:10:58.565Z,99236.44
2022-12-15T14:13:31.886Z,99521.94
2022-12-15T14:16:05.803Z,99403.66
2022-12-15T14:18:38.205Z,99301.88
2022-12-15T14:21:08.164Z,99433.03
2022-12-15T14:24:03.947Z,99531.47
2022-12-15T14:26:31.666Z,99537.50
2022-12-15T14:29:04.244Z,99537.88
2022-12-15T14:31:31.359Z,99489.19
2022-12-15T14:34:02.752Z,99543.31
2022-12-15T14:36:31.446Z,99126.22
2022-12-15T14:39:19.939Z,99546.56
2022-12-15T14:41:48.948Z,99550.38
2022-12-15T14:44:49.976Z,99516.09
2022-12-15T14:47:21.484Z,99552.69
2022-12-15T14:49:49.062Z,99550.00
2022-12-15T14:52:30.772Z,99551.47
2022-12-15T14:54:59.666Z,99525.41
2022-12-15T14:57:37.819Z,99367.78
2022-12-15T15:00:35.872Z,99551.41
2022-12-15T15:03:20.091Z,99554.38
2022-12-15T15:05:51.543Z,99338.34
2022-12-15T15:08:27.409Z,99560.53
2022-12-15T15:10:57.683Z,99227.34
2022-12-15T15:13:39.814Z,99524.22
2022-12-15T15:16:17.281Z,99566.66
2022-12-15T15:18:48.346Z,99522.22
2022-12-15T15:21:26.570Z,99507.66
2022-12-15T15:24:09.624Z,99554.25
2022-12-15T15:26:37.047Z,99528.28
2022-12-15T15:29:05.444Z,99512.09
2022-12-15T15:31:41.371Z,99564.13
2022-12-15T15:34:09.566Z,99573.50
2022-12-15T15:36:39.324Z,99278.81
2022-12-15T15:39:16.030Z,99313.81
2022-12-15T15:41:42.802Z,99568.84
2022-12-15T15:44:14.742Z,99290.41
2022-12-15T15:46:50.417Z,99551.22
2022-12-15T15:49:20.353Z,99412.34
2022-12-15T15:51:57.369Z,99557.72
2022-12-15T15:54:29.230Z,99438.88
2022-12-15T15:56:55.839Z,99517.28
2022-12-15T15:59:22.868Z,99598.91
2022-12-15T16:01:54.905Z,99517.63
2022-12-15T16:04:26.443Z,99402.63
2022-12-15T16:06:57.449Z,99590.88
2022-12-15T16:09:29.258Z,99594.63
2022-12-15T16:12:21.200Z,99344.22
2022-12-15T16:14:47.881Z,99445.19
2022-12-15T16:17:17.190Z,99603.09
2022-12-15T16:19:47.162Z,99561.47
2022-12-15T16:22:18.352Z,99601.78
2022-12-15T16:24:48.234Z,99636.66
2022-12-15T16:27:15.698Z,99627.00
2022-12-15T16:29:42.843Z,99464.25
2022-12-15T16:32:12.468Z,99587.34
2022-12-15T16:34:39.266Z,99327.34
2022-12-15T16:37:06.485Z,99543.72
2022-12-15T16:39:34.822Z,99578.03
2022-12-15T16:42:02.188Z,99567.19
2022-12-15T16:44:39.714Z,99471.53
2022-12-15T16:47:06.453Z,99512.97
2022-12-15T16:49:39.756Z,99538.00
2022-12-15T16:52:18.363Z,99564.69
2022-12-15T16:54:47.869Z,99380.84
2022-12-15T16:57:14.845Z,99463.00
2022-12-15T16:59:41.537Z,99581.81
2022-12-15T17:02:24.275Z,99627.94
2022-12-15T17:04:51.604Z,99637.59
2022-12-15T17:07:20.620Z,99561.16
2022-12-15T17:09:49.140Z,99639.41
2022-12-15T17:12:17.971Z,99637.75
2022-12-15T17:14:45.037Z,99617.59
2022-12-15T17:17:17.295Z,99522.53
2022-12-15T17:19:52.716Z,99646.03
2022-12-15T17:22:32.801Z,99475.16
2022-12-15T17:24:59.666Z,99655.00
2022-12-15T17:27:28.706Z,99646.97
2022-12-15T17:29:57.868Z,99658.84
2022-12-15T17:32:24.559Z,99608.72
2022-12-15T17:34:51.715Z,99543.84
2022-12-15T17:37:18.831Z,99645.63
2022-12-15T17:39:50.997Z,99609.34
2022-12-15T17:42:20.017Z,99541.41
2022-12-15T17:44:48.342Z,99604.69
2022-12-15T17:47:16.642Z,99649.38
2022-12-15T17:49:43.986Z,99664.00
2022-12-15T17:52:27.824Z,99619.56
2022-12-15T17:54:55.673Z,99597.59
2022-12-15T17:57:22.499Z,99680.59
2022-12-15T17:59:49.188Z,99419.50
2022-12-15T18:02:18.137Z,99668.25
2022-12-15T18:04:45.145Z,99587.03
2022-12-15T18:07:20.692Z,99550.69
2022-12-15T18:09:50.056Z,99662.25
2022-12-15T18:12:26.046Z,99680.16
2022-12-15T18:14:53.245Z,99720.88
2022-12-15T18:17:20.204Z,99699.66
2022-12-15T18:19:46.935Z,99685.94
2022-12-15T18:22:18.609Z,99689.38
2022-12-15T18:24:46.102Z,99445.91
2022-12-15T18:27:23.418Z,99698.47
2022-12-15T18:29:50.208Z,99704.97
2022-12-15T18:32:18.473Z,99725.72
2022-12-15T18:34:46.593Z,99510.88
2022-12-15T18:37:21.349Z,99699.31
2022-12-15T18:39:48.617Z,99701.94
2022-12-15T18:42:17.665Z,99704.81
2022-12-15T18:44:50.149Z,99672.38
2022-12-15T18:47:19.053Z,99657.22
2022-12-15T18:49:46.380Z,99709.19
2022-12-15T18:52:21.468Z,99709.69
2022-12-15T18:54:50.590Z,99726.53
2022-12-15T18:57:30.787Z,99727.09
2022-12-15T19:00:18.856Z,99710.72
2022-12-15T19:02:45.808Z,99691.69
2022-12-15T19:05:27.593Z,99720.34
2022-12-15T19:08:01.079Z,99541.22
2022-12-15T19:10:30.256Z,99680.25
2022-12-15T19:12:58.707Z,99742.28
2022-12-15T19:15:25.986Z,99750.09
2022-12-15T19:18:11.134Z,99690.66
2022-12-15T19:20:56.508Z,99734.19
2022-12-15T19:23:24.140Z,99761.13
2022-12-15T19:25:51.910Z,99745.22
2022-12-15T19:28:22.338Z,99756.22
2022-12-15T19:30:49.795Z,99756.16
2022-12-15T19:33:17.353Z,99761.34
2022-12-15T19:35:47.628Z,99765.56
2022-12-15T19:38:23.185Z,99682.03
2022-12-15T19:40:53.219Z,99770.50
2022-12-15T19:43:21.537Z,99561.13
2022-12-15T19:45:49.692Z,99502.91
2022-12-15T19:48:22.948Z,99639.59
2022-12-15T19:50:51.937Z,99629.31
2022-12-15T19:53:27.865Z,99722.06
2022-12-15T19:55:58.099Z,99801.00
2022-12-15T19:58:28.022Z,99783.09
2022-12-15T20:01:00.640Z,99714.88
2022-12-15T20:03:29.009Z,99795.22
2022-12-15T20:05:58.068Z,99792.09
2022-12-15T20:08:28.018Z,99817.34
2022-12-15T20:10:56.070Z,99795.34
2022-12-15T20:13:23.316Z,99727.53
2022-12-15T20:15:51.569Z,99768.44
2022-12-15T20:18:19.141Z,99794.25
2022-12-15T20:20:48.930Z,99807.66
2022-12-15T20:23:25.975Z,99804.56
2022-12-15T20:25:53.349Z,99550.25
2022-12-15T20:28:23.937Z,99453.75
2022-12-15T20:30:51.154Z,99811.38
2022-12-15T20:33:18.078Z,99802.09
2022-12-15T20:35:47.636Z,99812.22
2022-12-15T20:38:20.894Z,99811.66
2022-12-15T20:40:47.779Z,99398.94
2022-12-15T20:43:17.328Z,99821.63
2022-12-15T20:45:46.020Z,99823.13
2022-12-15T20:48:14.081Z,99827.06
2022-12-15T20:50:47.546Z,99824.81
2022-12-15T20:53:22.312Z,99824.00
2022-12-15T20:55:50.728Z,99631.22
2022-12-15T20:58:18.189Z,99831.19
2022-12-15T21:00:46.517Z,99785.06
2022-12-15T21:03:26.507Z,99850.50
2022-12-15T21:05:56.674Z,99671.31
2022-12-15T21:08:31.875Z,99843.41
2022-12-15T21:11:13.696Z,99842.25
2022-12-15T21:13:40.454Z,99848.25
2022-12-15T21:16:13.232Z,99849.97
2022-12-15T21:19:19.108Z,99850.16
2022-12-15T21:21:32.643Z,99853.50
2022-12-15T21:24:01.073Z,99859.28
2022-12-15T21:26:28.431Z,99809.06
2022-12-15T21:28:59.084Z,99864.56
2022-12-15T21:31:26.059Z,99860.53
2022-12-15T21:33:53.104Z,99866.38
2022-12-15T21:36:21.965Z,99895.63
2022-12-15T21:38:50.829Z,99866.94
2022-12-15T21:41:21.100Z,99867.81
2022-12-15T21:43:49.325Z,99870.47
2022-12-15T21:46:20.532Z,99798.06
2022-12-15T21:49:08.915Z,99881.72
2022-12-15T21:51:38.113Z,99679.94
2022-12-15T21:54:16.845Z,99885.25
2022-12-15T21:56:44.089Z,99763.09
2022-12-15T21:59:18.409Z,99723.72
2022-12-15T22:01:45.917Z,99641.00
2022-12-15T22:04:19.983Z,99891.84
2022-12-15T22:06:50.874Z,99871.81
2022-12-15T22:09:18.785Z,99889.13
2022-12-15T22:11:48.576Z,99890.78
2022-12-15T22:14:33.609Z,99861.19
2022-12-15T22:17:01.953Z,99890.97
2022-12-15T22:19:28.627Z,99868.44
2022-12-15T22:21:55.366Z,99897.91
2022-12-15T22:24:21.996Z,99652.97
2022-12-15T22:26:49.003Z,99832.72
2022-12-15T22:29:21.659Z,99912.38
2022-12-15T22:31:50.422Z,99909.91
2022-12-15T22:34:19.833Z,99857.84
2022-12-15T22:36:47.147Z,99913.13
2022-12-15T22:39:14.989Z,99688.84
2022-12-15T22:41:44.625Z,99908.75
2022-12-15T22:44:22.727Z,99915.53
2022-12-15T22:46:50.999Z,99908.69
2022-12-15T22:49:23.436Z,99907.88
2022-12-15T22:51:50.389Z,99264.50
2022-12-15T22:54:19.474Z,99907.19
2022-12-15T22:56:49.354Z,99906.31
2022-12-15T22:59:38.053Z,99920.59
2022-12-15T23:02:05.331Z,99913.22
2022-12-15T23:04:32.547Z,99839.75
2022-12-15T23:07:02.431Z,99912.59
2022-12-15T23:09:29.187Z,99907.53
2022-12-15T23:11:56.060Z,99923.47
2022-12-15T23:14:42.656Z,99757.72
2022-12-15T23:17:10.036Z,99720.72
2022-12-15T23:19:36.645Z,99744.00
2022-12-15T23:22:03.650Z,99920.72
2022-12-15T23:24:31.296Z,99879.06
2022-12-15T23:26:57.894Z,99779.25
2022-12-15T23:29:24.831Z,99919.88
2022-12-15T23:31:51.545Z,99916.66
2022-12-15T23:34:18.824Z,99925.09
2022-12-15T23:36:45.639Z,99925.81
2022-12-15T23:39:12.293Z,99936.69
2022-12-15T23:41:39.845Z,99929.06
2022-12-15T23:44:06.450Z,99928.91
2022-12-15T23:46:33.878Z,99937.69
2022-12-15T23:49:00.571Z,99928.88
2022-12-15T23:51:27.314Z,99940.78
2022-12-15T23:53:54.675Z,99855.53
2022-12-15T23:56:23.956Z,99934.34
2022-12-15T23:58:58.736Z,99921.00
